createdAt,value
2019-05-26T00:00:33.154Z,99042.16
2019-05-26T00:03:02.331Z,99040.72
2019-05-26T00:05:31.539Z,99043.44
2019-05-26T00:08:03.227Z,99039.34
2019-05-26T00:10:32.775Z,99032.45
2019-05-26T00:13:01.944Z,99037.37
2019-05-26T00:15:31.726Z,99039.51
2019-05-26T00:18:02.386Z,99040.84
2019-05-26T00:20:31.573Z,99036.73
2019-05-26T00:23:01.526Z,99050.34
2019-05-26T00:25:30.735Z,99042.89
2019-05-26T00:28:00.685Z,99042.05
2019-05-26T00:30:30.663Z,99042.48
2019-05-26T00:33:00.822Z,99045.27
2019-05-26T00:35:30.367Z,99040.55
2019-05-26T00:37:59.666Z,99043.30
2019-05-26T00:40:30.140Z,99044.38
2019-05-26T00:42:59.577Z,99044.91
2019-05-26T00:45:30.547Z,99040.07
2019-05-26T00:48:00.502Z,99038.34
2019-05-26T00:50:30.085Z,99034.72
2019-05-26T00:52:59.812Z,99031.70
2019-05-26T00:55:29.383Z,99036.80
2019-05-26T00:57:59.343Z,99038.46
2019-05-26T01:00:40.461Z,99037.93
2019-05-26T01:03:10.046Z,99039.98
2019-05-26T01:05:39.642Z,99035.95
2019-05-26T01:08:09.235Z,99032.70
2019-05-26T01:10:39.528Z,99036.67
2019-05-26T01:13:08.836Z,99037.16
2019-05-26T01:15:38.312Z,99039.20
2019-05-26T01:18:08.299Z,99034.09
2019-05-26T01:20:37.459Z,99036.50
2019-05-26T01:23:06.663Z,99042.85
2019-05-26T01:25:36.384Z,99048.56
2019-05-26T01:28:05.834Z,99048.94
2019-05-26T01:30:37.602Z,99052.72
2019-05-26T01:33:07.753Z,99048.73
2019-05-26T01:35:41.278Z,99049.29
2019-05-26T01:38:23.256Z,99053.48
2019-05-26T01:40:44.834Z,99051.39
2019-05-26T01:43:14.559Z,99055.37
2019-05-26T01:45:44.041Z,99045.72
2019-05-26T01:48:14.087Z,99052.95
2019-05-26T01:50:43.266Z,99055.76
2019-05-26T01:53:13.256Z,99056.77
2019-05-26T01:55:42.421Z,99061.23
2019-05-26T01:58:11.932Z,99062.77
2019-05-26T02:00:41.583Z,99054.85
2019-05-26T02:03:10.847Z,99050.20
2019-05-26T02:05:40.483Z,99055.87
2019-05-26T02:08:12.014Z,99052.04
2019-05-26T02:10:41.333Z,99046.53
2019-05-26T02:13:10.804Z,99041.95
2019-05-26T02:15:39.981Z,99041.13
2019-05-26T02:18:09.454Z,99042.66
2019-05-26T02:20:39.382Z,99040.27
2019-05-26T02:23:09.243Z,99040.27
2019-05-26T02:25:38.719Z,99037.84
2019-05-26T02:28:08.473Z,99037.98
2019-05-26T02:30:37.649Z,99039.59
2019-05-26T02:33:07.444Z,99036.73
2019-05-26T02:35:36.918Z,99037.67
2019-05-26T02:38:06.885Z,99036.25
2019-05-26T02:40:36.950Z,99031.98
2019-05-26T02:43:06.692Z,99037.09
2019-05-26T02:45:36.227Z,99036.20
2019-05-26T02:48:05.873Z,99046.81
2019-05-26T02:50:35.342Z,99048.91
2019-05-26T02:53:04.883Z,99053.66
2019-05-26T02:55:34.649Z,99050.01
2019-05-26T02:58:04.427Z,99047.77
2019-05-26T03:00:46.843Z,99045.17
2019-05-26T03:03:17.091Z,99045.45
2019-05-26T03:05:47.427Z,99044.49
2019-05-26T03:08:17.837Z,99051.08
2019-05-26T03:10:51.141Z,99048.53
2019-05-26T03:13:22.799Z,99044.33
2019-05-26T03:15:54.472Z,99043.63
2019-05-26T03:18:23.998Z,99045.66
2019-05-26T03:20:56.399Z,99042.56
2019-05-26T03:23:28.759Z,99036.83
2019-05-26T03:26:00.446Z,99040.33
2019-05-26T03:28:30.132Z,99028.91
2019-05-26T03:30:59.530Z,99032.05
2019-05-26T03:33:28.977Z,99030.83
2019-05-26T03:35:58.191Z,99028.44
2019-05-26T03:38:27.618Z,99028.18
2019-05-26T03:40:58.279Z,99035.44
2019-05-26T03:43:27.454Z,99037.48
2019-05-26T03:46:22.128Z,99037.70
2019-05-26T03:48:51.501Z,99041.06
2019-05-26T03:51:21.249Z,99040.91
2019-05-26T03:53:50.979Z,99043.03
2019-05-26T03:56:20.477Z,99046.80
2019-05-26T03:58:49.912Z,99046.45
2019-05-26T04:01:19.669Z,99047.14
2019-05-26T04:03:49.598Z,99047.16
2019-05-26T04:06:21.587Z,99046.32
2019-05-26T04:08:51.988Z,99051.23
2019-05-26T04:11:21.394Z,99046.29
2019-05-26T04:13:51.611Z,99044.09
2019-05-26T04:16:20.808Z,99042.48
2019-05-26T04:18:49.966Z,99041.38
2019-05-26T04:21:19.174Z,99042.70
2019-05-26T04:23:48.678Z,99039.63
2019-05-26T04:26:18.224Z,99033.41
2019-05-26T04:28:47.962Z,99035.22
2019-05-26T04:31:17.432Z,99039.08
2019-05-26T04:33:46.599Z,99042.39
2019-05-26T04:36:16.128Z,99043.75
2019-05-26T04:38:46.065Z,99040.80
2019-05-26T04:41:15.959Z,99041.66
2019-05-26T04:43:45.161Z,99046.11
2019-05-26T04:46:14.581Z,99050.38
2019-05-26T04:48:44.034Z,99053.11
2019-05-26T04:51:13.215Z,99058.19
2019-05-26T04:53:42.682Z,99056.00
2019-05-26T04:56:12.614Z,99059.75
2019-05-26T04:58:42.427Z,99059.13
2019-05-26T05:01:12.099Z,99065.51
2019-05-26T05:03:42.027Z,99062.79
2019-05-26T05:06:16.140Z,99062.61
2019-05-26T05:08:45.600Z,99069.86
2019-05-26T05:11:15.107Z,99063.30
2019-05-26T05:13:44.285Z,99058.73
2019-05-26T05:16:14.608Z,99061.61
2019-05-26T05:18:44.098Z,99064.10
2019-05-26T05:21:13.540Z,99059.15
2019-05-26T05:23:44.376Z,99062.53
2019-05-26T05:26:13.525Z,99061.16
2019-05-26T05:28:43.049Z,99070.45
2019-05-26T05:31:12.771Z,99062.66
2019-05-26T05:33:42.753Z,99068.16
2019-05-26T05:36:12.645Z,99069.02
2019-05-26T05:38:42.202Z,99073.69
2019-05-26T05:41:12.696Z,99063.66
2019-05-26T05:43:42.928Z,99073.19
2019-05-26T05:46:12.368Z,99076.33
2019-05-26T05:48:42.151Z,99080.08
2019-05-26T05:51:12.504Z,99075.91
2019-05-26T05:53:41.693Z,99073.19
2019-05-26T05:56:11.193Z,99073.33
2019-05-26T05:58:41.119Z,99069.08
2019-05-26T06:01:10.596Z,99066.53
2019-05-26T06:03:40.354Z,99062.66
2019-05-26T06:06:09.548Z,99063.08
2019-05-26T06:08:39.329Z,99061.08
2019-05-26T06:11:16.671Z,99062.33
2019-05-26T06:13:39.422Z,99051.10
2019-05-26T06:16:08.433Z,99051.34
2019-05-26T06:18:37.598Z,99046.01
2019-05-26T06:21:06.795Z,99053.61
2019-05-26T06:23:37.197Z,99049.16
2019-05-26T06:26:06.470Z,99050.14
2019-05-26T06:28:35.667Z,99052.08
2019-05-26T06:31:05.182Z,99056.78
2019-05-26T06:33:34.678Z,99050.36
2019-05-26T06:36:04.258Z,99051.64
2019-05-26T06:38:34.007Z,99053.00
2019-05-26T06:41:03.310Z,99050.31
2019-05-26T06:43:32.475Z,99051.64
2019-05-26T06:46:02.234Z,99055.87
2019-05-26T06:48:31.415Z,99048.65
2019-05-26T06:51:01.706Z,99043.88
2019-05-26T06:53:31.254Z,99039.57
2019-05-26T06:56:01.023Z,99047.29
2019-05-26T06:58:30.457Z,99050.46
2019-05-26T07:00:59.657Z,99045.37
2019-05-26T07:03:31.574Z,99043.91
2019-05-26T07:06:00.772Z,99044.22
2019-05-26T07:08:30.260Z,99044.09
2019-05-26T07:10:59.444Z,99035.16
2019-05-26T07:13:29.701Z,99042.50
2019-05-26T07:15:59.159Z,99044.22
2019-05-26T07:18:28.711Z,99041.33
2019-05-26T07:20:58.191Z,99057.94
2019-05-26T07:23:27.842Z,99044.96
2019-05-26T07:25:57.546Z,99045.38
2019-05-26T07:28:26.998Z,99039.79
2019-05-26T07:30:56.757Z,99039.86
2019-05-26T07:33:26.219Z,99034.59
2019-05-26T07:35:55.777Z,99026.67
2019-05-26T07:38:25.513Z,99029.86
2019-05-26T07:40:54.682Z,99026.22
2019-05-26T07:43:27.840Z,99019.89
2019-05-26T07:45:55.830Z,99024.15
2019-05-26T07:48:26.814Z,99029.23
2019-05-26T07:50:55.985Z,99018.40
2019-05-26T07:53:25.490Z,99006.00
2019-05-26T07:55:57.519Z,99015.02
2019-05-26T07:58:26.743Z,99008.19
2019-05-26T08:00:56.394Z,99006.08
2019-05-26T08:03:25.633Z,99007.34
2019-05-26T08:05:56.254Z,99008.59
2019-05-26T08:08:26.357Z,99009.48
2019-05-26T08:10:56.369Z,99008.23
2019-05-26T08:13:29.417Z,99010.37
2019-05-26T08:16:03.586Z,99002.02
2019-05-26T08:18:34.750Z,99004.01
2019-05-26T08:21:05.169Z,98996.44
2019-05-26T08:23:35.053Z,99003.06
2019-05-26T08:26:04.631Z,98999.91
2019-05-26T08:28:34.109Z,98996.94
2019-05-26T08:31:03.785Z,98995.72
2019-05-26T08:33:39.812Z,98997.58
2019-05-26T08:36:09.566Z,98994.18
2019-05-26T08:38:42.168Z,99003.87
2019-05-26T08:41:12.858Z,99009.80
2019-05-26T08:43:43.896Z,98995.73
2019-05-26T08:46:15.216Z,98995.63
2019-05-26T08:48:44.420Z,98993.19
2019-05-26T08:51:13.598Z,98989.19
2019-05-26T08:53:42.820Z,98987.73
2019-05-26T08:56:11.998Z,98970.40
2019-05-26T08:58:41.988Z,98981.91
2019-05-26T09:01:11.172Z,98975.72
2019-05-26T09:03:40.835Z,98972.70
2019-05-26T09:06:10.001Z,98980.80
2019-05-26T09:08:39.191Z,98983.07
2019-05-26T09:11:08.361Z,98977.81
2019-05-26T09:13:37.837Z,98978.73
2019-05-26T09:16:08.150Z,98962.34
2019-05-26T09:18:38.052Z,98963.80
2019-05-26T09:21:07.304Z,98962.13
2019-05-26T09:23:37.602Z,98950.06
2019-05-26T09:26:07.652Z,98963.58
2019-05-26T09:28:37.582Z,98943.33
2019-05-26T09:31:07.173Z,98950.22
2019-05-26T09:33:36.354Z,98951.22
2019-05-26T09:36:08.196Z,98950.73
2019-05-26T09:38:37.386Z,98948.42
2019-05-26T09:41:07.831Z,98950.95
2019-05-26T09:43:38.135Z,98948.80
2019-05-26T09:46:07.585Z,98940.97
2019-05-26T09:48:37.030Z,98950.34
2019-05-26T09:51:06.241Z,98934.08
2019-05-26T09:53:35.693Z,98937.64
2019-05-26T09:56:05.117Z,98937.50
2019-05-26T09:58:34.285Z,98946.12
2019-05-26T10:01:04.155Z,98951.11
2019-05-26T10:03:33.502Z,98941.69
2019-05-26T10:06:02.794Z,98936.45
2019-05-26T10:08:32.842Z,98935.72
2019-05-26T10:11:02.034Z,98932.89
2019-05-26T10:13:32.372Z,98921.27
2019-05-26T10:16:01.886Z,98928.91
2019-05-26T10:18:31.337Z,98927.52
2019-05-26T10:21:00.676Z,98922.72
2019-05-26T10:23:30.071Z,98917.09
2019-05-26T10:25:59.547Z,98919.96
2019-05-26T10:28:29.060Z,98918.69
2019-05-26T10:31:00.267Z,98913.53
2019-05-26T10:33:29.564Z,98920.59
2019-05-26T10:35:59.422Z,98903.05
2019-05-26T10:38:28.872Z,98909.78
2019-05-26T10:40:58.090Z,98904.23
2019-05-26T10:43:27.289Z,98906.25
2019-05-26T10:45:56.483Z,98903.55
2019-05-26T10:48:25.705Z,98906.89
2019-05-26T10:50:55.039Z,98911.63
2019-05-26T10:53:24.236Z,98897.92
2019-05-26T10:55:53.837Z,98899.94
2019-05-26T10:58:23.153Z,98912.97
2019-05-26T11:00:52.924Z,98906.03
2019-05-26T11:03:22.205Z,98900.44
2019-05-26T11:05:51.701Z,98896.95
2019-05-26T11:08:20.990Z,98891.69
2019-05-26T11:10:54.226Z,98891.69
2019-05-26T11:13:24.657Z,98886.61
2019-05-26T11:15:53.667Z,98888.50
2019-05-26T11:18:23.554Z,98873.53
2019-05-26T11:20:52.880Z,98880.92
2019-05-26T11:23:22.322Z,98881.57
2019-05-26T11:25:51.873Z,98871.33
2019-05-26T11:28:21.040Z,98873.34
2019-05-26T11:30:51.571Z,98866.86
2019-05-26T11:33:20.773Z,98856.29
2019-05-26T11:35:54.489Z,98853.54
2019-05-26T11:38:24.790Z,98783.34
2019-05-26T11:40:54.083Z,98833.72
2019-05-26T11:43:23.278Z,98839.61
2019-05-26T11:45:52.457Z,98848.88
2019-05-26T11:48:21.663Z,98829.27
2019-05-26T11:50:50.825Z,98838.25
2019-05-26T11:53:20.694Z,98838.25
2019-05-26T11:55:51.191Z,98839.77
2019-05-26T11:58:21.092Z,98831.38
2019-05-26T12:01:01.304Z,98833.41
2019-05-26T12:03:30.561Z,98824.97
2019-05-26T12:06:02.067Z,98820.92
2019-05-26T12:08:31.298Z,98843.73
2019-05-26T12:11:01.038Z,98829.84
2019-05-26T12:13:37.690Z,98820.13
2019-05-26T12:16:08.999Z,98825.87
2019-05-26T12:18:38.299Z,98829.27
2019-05-26T12:21:07.483Z,98822.48
2019-05-26T12:23:37.270Z,98817.72
2019-05-26T12:26:07.249Z,98812.97
2019-05-26T12:28:36.559Z,98815.06
2019-05-26T12:31:06.035Z,98803.89
2019-05-26T12:33:35.652Z,98800.95
2019-05-26T12:36:07.427Z,98797.45
2019-05-26T12:38:52.462Z,98803.11
2019-05-26T12:41:22.717Z,98805.20
2019-05-26T12:43:52.344Z,98799.86
2019-05-26T12:46:21.709Z,98785.02
2019-05-26T12:48:51.934Z,98787.84
2019-05-26T12:51:21.366Z,98779.35
2019-05-26T12:53:50.573Z,98775.25
2019-05-26T12:56:19.753Z,98775.25
2019-05-26T12:58:48.943Z,98771.80
2019-05-26T13:01:18.498Z,98776.70
2019-05-26T13:03:47.981Z,98776.70
2019-05-26T13:06:17.788Z,98773.17
2019-05-26T13:08:47.259Z,98770.44
2019-05-26T13:11:18.829Z,98762.31
2019-05-26T13:13:49.519Z,98762.31
2019-05-26T13:16:18.721Z,98747.29
2019-05-26T13:18:48.671Z,98756.80
2019-05-26T13:21:17.898Z,98759.30
2019-05-26T13:23:47.587Z,98756.23
2019-05-26T13:26:16.880Z,98758.55
2019-05-26T13:28:46.066Z,98759.88
2019-05-26T13:31:15.891Z,98760.58
2019-05-26T13:33:45.708Z,98760.98
2019-05-26T13:36:15.989Z,98752.64
2019-05-26T13:38:45.989Z,98753.25
2019-05-26T13:41:15.761Z,98753.25
2019-05-26T13:43:45.204Z,98757.27
2019-05-26T13:46:15.383Z,98747.75
2019-05-26T13:48:45.677Z,98753.80
2019-05-26T13:51:16.232Z,98736.26
2019-05-26T13:53:46.164Z,98730.81
2019-05-26T13:56:15.351Z,98729.66
2019-05-26T13:58:44.700Z,98738.52
2019-05-26T14:01:14.256Z,98738.52
2019-05-26T14:03:43.709Z,98730.11
2019-05-26T14:06:16.381Z,98730.42
2019-05-26T14:08:45.633Z,98722.82
2019-05-26T14:11:14.837Z,98722.82
2019-05-26T14:13:44.242Z,98724.00
2019-05-26T14:16:13.824Z,98719.89
2019-05-26T14:18:44.762Z,98721.87
2019-05-26T14:21:14.237Z,98715.63
2019-05-26T14:23:43.437Z,98707.59
2019-05-26T14:26:13.272Z,98715.81
2019-05-26T14:28:42.471Z,98710.92
2019-05-26T14:31:11.638Z,98712.37
2019-05-26T14:33:40.815Z,98699.98
2019-05-26T14:36:09.990Z,98693.28
2019-05-26T14:38:43.256Z,98681.27
2019-05-26T14:41:11.011Z,98692.53
2019-05-26T14:43:40.220Z,98697.33
2019-05-26T14:46:09.704Z,98676.91
2019-05-26T14:48:38.723Z,98675.83
2019-05-26T14:51:08.253Z,98676.84
2019-05-26T14:53:37.793Z,98681.03
2019-05-26T14:56:08.070Z,98676.26
2019-05-26T14:58:37.253Z,98672.33
2019-05-26T15:01:06.441Z,98666.03
2019-05-26T15:03:35.750Z,98724.06
2019-05-26T15:06:06.154Z,98658.74
2019-05-26T15:08:35.516Z,98650.19
2019-05-26T15:11:05.266Z,98668.81
2019-05-26T15:13:35.349Z,98660.31
2019-05-26T15:16:09.821Z,98648.52
2019-05-26T15:18:36.375Z,98647.52
2019-05-26T15:21:06.607Z,98643.84
2019-05-26T15:23:37.014Z,98642.22
2019-05-26T15:26:08.492Z,98631.09
2019-05-26T15:28:38.008Z,98644.11
2019-05-26T15:31:10.087Z,98641.33
2019-05-26T15:33:39.041Z,98641.33
2019-05-26T15:36:08.236Z,98628.77
2019-05-26T15:38:43.147Z,98641.81
2019-05-26T15:41:09.359Z,98635.66
2019-05-26T15:43:38.694Z,98635.66
2019-05-26T15:46:24.787Z,98622.90
2019-05-26T15:48:57.820Z,98625.02
2019-05-26T15:51:27.138Z,98622.64
2019-05-26T15:54:01.397Z,98621.02
2019-05-26T15:56:30.789Z,98617.59
2019-05-26T15:59:01.415Z,98613.94
2019-05-26T16:01:30.906Z,98614.89
2019-05-26T16:04:01.186Z,98613.08
2019-05-26T16:06:30.580Z,98611.95
2019-05-26T16:09:03.920Z,98610.80
2019-05-26T16:11:33.116Z,98616.44
2019-05-26T16:14:03.155Z,98588.79
2019-05-26T16:16:41.312Z,98600.92
2019-05-26T16:19:03.543Z,98598.92
2019-05-26T16:21:33.017Z,98596.92
2019-05-26T16:24:02.171Z,98597.83
2019-05-26T16:26:32.124Z,98599.33
2019-05-26T16:29:01.985Z,98594.63
2019-05-26T16:31:32.019Z,98589.05
2019-05-26T16:34:01.444Z,98596.17
2019-05-26T16:36:32.296Z,98581.63
2019-05-26T16:39:01.672Z,98592.45
2019-05-26T16:41:31.933Z,98555.84
2019-05-26T16:44:01.155Z,98591.02
2019-05-26T16:46:30.725Z,98585.70
2019-05-26T16:49:07.314Z,98593.86
2019-05-26T16:51:36.591Z,98590.61
2019-05-26T16:54:07.079Z,98593.41
2019-05-26T16:56:36.284Z,98595.94
2019-05-26T16:59:05.564Z,98589.23
2019-05-26T17:01:36.422Z,98581.41
2019-05-26T17:04:05.984Z,98588.97
2019-05-26T17:06:36.009Z,98584.09
2019-05-26T17:09:07.662Z,98577.34
2019-05-26T17:11:38.325Z,98582.44
2019-05-26T17:14:08.379Z,98577.21
2019-05-26T17:16:39.771Z,98578.18
2019-05-26T17:19:09.325Z,98573.00
2019-05-26T17:21:38.531Z,98574.14
2019-05-26T17:24:07.950Z,98571.39
2019-05-26T17:26:37.223Z,98575.37
2019-05-26T17:29:06.447Z,98571.77
2019-05-26T17:31:36.028Z,98576.86
2019-05-26T17:34:06.327Z,98583.78
2019-05-26T17:36:37.988Z,98577.10
2019-05-26T17:39:09.689Z,98574.38
2019-05-26T17:41:38.885Z,98568.34
2019-05-26T17:44:08.422Z,98565.50
2019-05-26T17:46:40.692Z,98567.42
2019-05-26T17:49:10.389Z,98566.08
2019-05-26T17:51:40.403Z,98569.27
2019-05-26T17:54:10.192Z,98571.69
2019-05-26T17:56:39.405Z,98573.84
2019-05-26T17:59:09.134Z,98583.02
2019-05-26T18:01:40.633Z,98580.70
2019-05-26T18:04:11.410Z,98581.48
2019-05-26T18:06:41.230Z,98581.55
2019-05-26T18:09:11.311Z,98571.59
2019-05-26T18:11:42.481Z,98573.66
2019-05-26T18:14:12.208Z,98574.23
2019-05-26T18:16:41.419Z,98576.73
2019-05-26T18:19:10.875Z,98572.51
2019-05-26T18:21:41.614Z,98562.06
2019-05-26T18:24:11.087Z,98565.42
2019-05-26T18:26:40.544Z,98569.22
2019-05-26T18:29:10.093Z,98567.78
2019-05-26T18:31:40.412Z,98569.36
2019-05-26T18:34:09.627Z,98560.26
2019-05-26T18:36:38.861Z,98564.20
2019-05-26T18:39:09.047Z,98564.20
2019-05-26T18:41:38.518Z,98564.62
2019-05-26T18:44:10.875Z,98567.27
2019-05-26T18:46:40.076Z,98564.39
2019-05-26T18:49:09.623Z,98553.77
2019-05-26T18:51:39.112Z,98561.52
2019-05-26T18:54:08.608Z,98563.45
2019-05-26T18:56:40.475Z,98558.06
2019-05-26T18:59:10.910Z,98557.64
2019-05-26T19:01:40.894Z,98552.54
2019-05-26T19:04:10.099Z,98554.44
2019-05-26T19:06:39.810Z,98551.60
2019-05-26T19:09:09.932Z,98552.14
2019-05-26T19:11:40.954Z,98549.66
2019-05-26T19:14:10.676Z,98549.23
2019-05-26T19:16:39.877Z,98550.37
2019-05-26T19:19:09.413Z,98554.20
2019-05-26T19:21:39.383Z,98551.72
2019-05-26T19:24:09.191Z,98546.00
2019-05-26T19:26:39.567Z,98546.48
2019-05-26T19:29:09.568Z,98552.05
2019-05-26T19:31:39.036Z,98555.23
2019-05-26T19:34:08.583Z,98547.38
2019-05-26T19:36:38.556Z,98550.30
2019-05-26T19:39:12.693Z,98553.98
2019-05-26T19:41:44.250Z,98557.02
2019-05-26T19:44:13.455Z,98549.97
2019-05-26T19:46:42.888Z,98549.27
2019-05-26T19:49:12.988Z,98552.95
2019-05-26T19:51:44.056Z,98551.78
2019-05-26T19:54:14.067Z,98554.34
2019-05-26T19:56:43.286Z,98555.34
2019-05-26T19:59:13.004Z,98554.50
2019-05-26T20:01:42.334Z,98549.98
2019-05-26T20:04:12.372Z,98552.52
2019-05-26T20:06:44.409Z,98554.69
2019-05-26T20:09:17.830Z,98554.84
2019-05-26T20:11:51.703Z,98552.68
2019-05-26T20:14:22.225Z,98547.13
2019-05-26T20:16:51.782Z,98549.48
2019-05-26T20:19:21.253Z,98547.81
2019-05-26T20:21:51.552Z,98545.45
2019-05-26T20:24:20.795Z,98544.78
2019-05-26T20:26:52.482Z,98546.48
2019-05-26T20:29:21.673Z,98542.11
2019-05-26T20:31:50.900Z,98543.77
2019-05-26T20:34:20.106Z,98545.11
2019-05-26T20:36:49.342Z,98546.81
2019-05-26T20:39:18.550Z,98550.50
2019-05-26T20:41:47.758Z,98550.14
2019-05-26T20:44:16.935Z,98549.50
2019-05-26T20:46:46.730Z,98549.97
2019-05-26T20:49:16.351Z,98547.11
2019-05-26T20:51:46.645Z,98548.42
2019-05-26T20:54:18.586Z,98540.20
2019-05-26T20:56:48.773Z,98539.76
2019-05-26T20:59:19.340Z,98536.20
2019-05-26T21:01:49.056Z,98528.33
2019-05-26T21:04:40.508Z,98526.64
2019-05-26T21:07:12.436Z,98523.46
2019-05-26T21:09:43.114Z,98526.64
2019-05-26T21:12:12.862Z,98523.08
2019-05-26T21:14:43.339Z,98530.94
2019-05-26T21:17:16.617Z,98531.27
2019-05-26T21:19:46.577Z,98530.94
2019-05-26T21:22:15.790Z,98522.10
2019-05-26T21:24:44.988Z,98516.69
2019-05-26T21:27:15.005Z,98515.75
2019-05-26T21:29:44.602Z,98518.45
2019-05-26T21:32:14.314Z,98515.09
2019-05-26T21:34:43.778Z,98517.09
2019-05-26T21:37:13.154Z,98516.42
2019-05-26T21:39:42.752Z,98512.25
2019-05-26T21:42:15.857Z,98511.70
2019-05-26T21:44:46.302Z,98514.39
2019-05-26T21:47:16.318Z,98517.25
2019-05-26T21:49:45.868Z,98512.91
2019-05-26T21:52:15.766Z,98509.22
2019-05-26T21:54:46.072Z,98507.69
2019-05-26T21:57:15.256Z,98505.97
2019-05-26T21:59:44.424Z,98506.44
2019-05-26T22:02:13.825Z,98502.23
2019-05-26T22:04:43.302Z,98499.23
2019-05-26T22:07:14.246Z,98490.85
2019-05-26T22:09:43.563Z,98490.83
2019-05-26T22:12:13.389Z,98489.66
2019-05-26T22:14:42.619Z,98487.14
2019-05-26T22:17:12.928Z,98482.46
2019-05-26T22:19:44.519Z,98481.64
2019-05-26T22:22:13.831Z,98487.17
2019-05-26T22:24:43.200Z,98475.62
2019-05-26T22:27:12.453Z,98479.29
2019-05-26T22:29:41.659Z,98478.95
2019-05-26T22:32:10.824Z,98471.56
2019-05-26T22:34:40.024Z,98473.23
2019-05-26T22:37:09.614Z,98460.02
2019-05-26T22:39:39.163Z,98461.98
2019-05-26T22:42:09.094Z,98452.77
2019-05-26T22:44:38.605Z,98456.45
2019-05-26T22:47:08.154Z,98452.77
2019-05-26T22:49:38.509Z,98459.80
2019-05-26T22:52:08.053Z,98453.27
2019-05-26T22:54:37.850Z,98460.67
2019-05-26T22:57:07.393Z,98453.61
2019-05-26T22:59:36.591Z,98457.11
2019-05-26T23:02:06.152Z,98456.44
2019-05-26T23:04:35.327Z,98452.75
2019-05-26T23:07:04.500Z,98448.20
2019-05-26T23:09:34.613Z,98446.89
2019-05-26T23:12:03.777Z,98441.00
2019-05-26T23:14:32.971Z,98441.86
2019-05-26T23:17:02.150Z,98437.48
2019-05-26T23:19:31.313Z,98443.65
2019-05-26T23:22:00.886Z,98444.02
2019-05-26T23:24:30.643Z,98433.80
2019-05-26T23:26:59.818Z,98434.13
2019-05-26T23:29:29.372Z,98431.42
2019-05-26T23:31:58.896Z,98428.94
2019-05-26T23:34:28.086Z,98428.12
2019-05-26T23:36:57.289Z,98428.41
2019-05-26T23:39:27.542Z,98424.72
2019-05-26T23:41:57.751Z,98424.39
2019-05-26T23:44:29.397Z,98420.84
2019-05-26T23:46:59.637Z,98423.83
2019-05-26T23:49:30.003Z,98423.83
2019-05-26T23:51:59.496Z,98420.84
2019-05-26T23:54:28.649Z,98423.16
2019-05-26T23:56:57.932Z,98413.48
2019-05-26T23:59:28.148Z,98410.94
